Time;durP1;ratioP1;P1;durP2;ratioP2;P2;SDS_P1;SDS_P2;PMS_P1;PMS_P2;Temp;Humidity;BMP_temperature;BMP_pressure;BME280_temperature;BME280_humidity;BME280_pressure;Samples;Min_cycle;Max_cycle;Signal;HPM_P1;HPM_P2
2021/08/24 00:02:11;;;;;;;0.85;0.52;;;;;;;15.73;57.36;101712.69;5014876;28;20022;-74
2021/08/24 00:04:37;;;;;;;0.40;0.40;;;;;;;15.63;57.76;101694.16;5004448;28;20036;-74
2021/08/24 00:07:03;;;;;;;0.30;0.30;;;;;;;15.68;57.86;101708.00;4998997;28;20057;-75
2021/08/24 00:09:29;;;;;;;0.50;0.45;;;;;;;15.63;58.07;101707.13;4999954;28;20145;-73
2021/08/24 00:11:55;;;;;;;0.73;0.50;;;;;;;15.59;57.95;101708.78;5015208;28;20026;-74
2021/08/24 00:14:20;;;;;;;0.73;0.47;;;;;;;15.57;58.08;101708.22;4991036;28;20483;-75
2021/08/24 00:16:46;;;;;;;0.35;0.35;;;;;;;15.58;57.65;101715.38;5014994;28;20026;-74
2021/08/24 00:19:11;;;;;;;2.60;0.40;;;;;;;15.54;58.80;101717.84;5009471;28;20133;-74
2021/08/24 00:21:38;;;;;;;0.40;0.40;;;;;;;15.50;58.64;101716.72;5014304;28;20480;-73
2021/08/24 00:24:07;;;;;;;0.35;0.35;;;;;;;15.48;58.38;101718.94;5021704;28;20117;-74
2021/08/24 00:26:36;;;;;;;0.73;0.30;;;;;;;15.43;58.67;101716.13;5024731;28;20037;-74
2021/08/24 00:29:02;;;;;;;0.57;0.57;;;;;;;15.42;58.98;101715.31;5024483;28;20060;-76
2021/08/24 00:31:28;;;;;;;0.40;0.38;;;;;;;15.35;59.24;101714.72;5018071;28;20033;-73
2021/08/24 00:33:54;;;;;;;0.30;0.30;;;;;;;15.31;59.22;101710.81;5015577;28;20037;-75
2021/08/24 00:36:20;;;;;;;1.15;0.73;;;;;;;15.30;58.98;101714.66;5018303;28;20036;-73
2021/08/24 00:38:46;;;;;;;0.75;0.20;;;;;;;15.26;59.38;101708.03;5017436;28;20029;-73
2021/08/24 00:41:12;;;;;;;1.23;0.30;;;;;;;15.21;59.47;101710.78;5017210;28;20034;-73
2021/08/24 00:43:41;;;;;;;0.30;0.20;;;;;;;15.13;59.26;101709.34;5018711;28;20124;-76
2021/08/24 00:46:33;;;;;;;1.00;0.43;;;;;;;15.15;59.11;101721.75;5020007;28;20032;-74
2021/08/24 00:49:22;;;;;;;0.20;0.20;;;;;;;15.10;59.23;101724.47;5016883;28;20022;-75
2021/08/24 00:51:54;;;;;;;0.30;0.30;;;;;;;15.02;59.68;101716.69;5016407;28;20033;-74
2021/08/24 00:55:04;;;;;;;;;;;;;;;;;;;;;
2021/08/24 00:57:51;;;;;;;0.40;0.38;;;;;;;15.00;60.18;101716.97;5015207;28;20121;-73
2021/08/24 01:04:21;;;;;;;;;;;;;;;;;;;;;
2021/08/24 01:07:24;;;;;;;;;;;;;;;;;;;;;
2021/08/24 01:10:13;;;;;;;0.40;0.40;;;;;;;14.82;60.31;101722.88;5015975;28;20097;-73
2021/08/24 01:12:48;;;;;;;0.25;0.25;;;;;;;14.76;61.05;101729.44;5015448;28;20033;-73
2021/08/24 01:26:38;;;;;;;0.60;0.50;;;;;;;14.23;61.15;101715.44;5020696;28;20045;-74
2021/08/24 01:29:24;;;;;;;2.58;0.68;;;;;;;14.10;61.58;101711.97;4882368;29;20031;-73
2021/08/24 01:32:05;;;;;;;0.40;0.38;;;;;;;14.12;62.09;101731.00;4946633;28;20039;-73
2021/08/24 01:34:58;;;;;;;1.65;0.40;;;;;;;14.05;62.49;101728.44;5006944;28;20097;-74
2021/08/24 01:37:26;;;;;;;0.52;0.52;;;;;;;13.99;62.23;101732.22;5009996;28;20018;-73
2021/08/24 01:40:01;;;;;;;0.40;0.40;;;;;;;13.93;62.16;101719.47;5018120;28;20101;-72
2021/08/24 01:42:31;;;;;;;0.30;0.30;;;;;;;13.90;62.52;101722.75;5004684;28;20037;-72
2021/08/24 01:45:12;;;;;;;0.52;0.50;;;;;;;13.86;62.63;101721.63;5013754;28;20480;-73
2021/08/24 01:47:49;;;;;;;0.40;0.40;;;;;;;13.80;63.18;101715.22;5017065;28;20160;-74
2021/08/24 01:50:37;;;;;;;0.50;0.35;;;;;;;13.68;63.55;101714.50;5017963;28;20024;-74
2021/08/24 01:53:16;;;;;;;0.40;0.40;;;;;;;13.66;63.26;101727.69;5014834;28;20040;-74
2021/08/24 01:55:48;;;;;;;0.35;0.30;;;;;;;13.56;63.22;101717.38;5013676;28;20492;-75
2021/08/24 01:58:29;;;;;;;0.50;0.50;;;;;;;13.56;63.87;101717.38;5009364;28;20467;-73
2021/08/24 02:00:56;;;;;;;0.50;0.50;;;;;;;13.48;64.37;101709.56;5010940;28;20046;-75
2021/08/24 02:03:31;;;;;;;0.85;0.32;;;;;;;13.47;64.16;101702.44;5017108;28;20168;-73
2021/08/24 02:06:05;;;;;;;0.70;0.70;;;;;;;13.54;63.94;101714.06;4993001;28;20076;-74
2021/08/24 02:08:34;;;;;;;0.73;0.60;;;;;;;13.55;64.37;101715.72;5008747;28;20018;-75
2021/08/24 02:11:02;;;;;;;0.60;0.60;;;;;;;13.52;64.05;101717.06;5017955;28;20045;-74
2021/08/24 02:13:35;;;;;;;0.50;0.50;;;;;;;13.46;64.81;101703.50;5007947;28;20059;-75
2021/08/24 02:16:05;;;;;;;1.33;0.73;;;;;;;13.53;65.36;101707.72;5017561;28;20028;-75
2021/08/24 02:18:38;;;;;;;0.75;0.70;;;;;;;13.51;65.52;101714.59;5021954;28;20097;-74
2021/08/24 02:21:33;;;;;;;0.65;0.65;;;;;;;13.52;65.04;101710.72;5020280;28;20033;-75
2021/08/24 02:24:03;;;;;;;1.38;1.02;;;;;;;13.50;65.99;101712.91;5024212;28;20481;-75
2021/08/24 02:26:32;;;;;;;1.08;1.08;;;;;;;13.49;65.82;101711.25;5024881;28;20027;-75
2021/08/24 02:28:59;;;;;;;0.63;0.50;;;;;;;13.50;65.67;101712.91;5022832;28;20050;-79
2021/08/24 02:31:46;;;;;;;0.88;0.77;;;;;;;13.42;65.61;101706.78;5023537;28;20049;-76
2021/08/24 02:34:35;;;;;;;3.80;0.70;;;;;;;13.42;66.43;101711.44;5017558;28;20030;-77
2021/08/24 02:37:22;;;;;;;0.82;0.45;;;;;;;13.37;65.77;101719.59;5026096;28;20536;-77
2021/08/24 02:40:09;;;;;;;;;;;;;;;;;;;;;
2021/08/24 02:42:59;;;;;;;0.80;0.80;;;;;;;13.26;66.55;101707.63;5021983;28;20113;-75
2021/08/24 02:45:42;;;;;;;0.75;0.75;;;;;;;13.33;67.38;101713.78;5018217;28;20026;-77
2021/08/24 02:48:12;;;;;;;0.73;0.73;;;;;;;13.48;67.26;101718.66;5016807;28;20026;-75
2021/08/24 02:50:40;;;;;;;1.58;0.93;;;;;;;13.58;67.00;101709.72;5016604;28;20028;-77
2021/08/24 02:53:06;;;;;;;1.92;1.17;;;;;;;13.84;68.01;101712.78;5016857;28;20030;-76
2021/08/24 02:55:39;;;;;;;3.03;0.85;;;;;;;13.94;67.65;101696.41;5014265;28;20085;-76
2021/08/24 02:58:04;;;;;;;1.48;0.88;;;;;;;14.21;67.83;101725.88;5019479;28;20028;-78
2021/08/24 03:00:43;;;;;;;0.82;0.60;;;;;;;14.34;67.07;101727.34;5021356;28;20030;-78
2021/08/24 03:03:08;;;;;;;0.65;0.65;;;;;;;14.40;66.99;101713.41;5021290;28;20085;-76
2021/08/24 03:05:37;;;;;;;1.23;0.88;;;;;;;14.47;67.39;101700.25;5022393;28;20076;-77
2021/08/24 03:08:38;;;;;;;1.73;0.90;;;;;;;14.63;67.08;101708.66;5027919;28;20041;-78
2021/08/24 03:11:12;;;;;;;1.08;1.08;;;;;;;14.75;67.14;101706.59;5003858;28;20385;-76
2021/08/24 03:14:00;;;;;;;1.30;1.20;;;;;;;14.87;67.09;101702.81;5009841;28;20030;-76
2021/08/24 03:16:40;;;;;;;1.42;1.30;;;;;;;15.00;67.11;101707.88;5012944;28;20030;-76
2021/08/24 03:19:11;;;;;;;1.63;1.52;;;;;;;15.05;67.06;101707.09;5006588;28;20030;-76
2021/08/24 03:21:38;;;;;;;1.77;1.67;;;;;;;15.16;67.18;101719.84;5022877;28;20061;-76
2021/08/24 03:24:13;;;;;;;1.30;1.30;;;;;;;15.24;67.41;101718.50;5018856;28;20026;-74
2021/08/24 03:26:42;;;;;;;1.13;1.13;;;;;;;15.28;67.45;101714.13;5026393;28;20032;-75
2021/08/24 03:29:11;;;;;;;2.35;1.05;;;;;;;15.35;67.36;101725.75;5020577;28;20025;-75
2021/08/24 03:31:41;;;;;;;1.13;1.13;;;;;;;15.39;67.20;101726.88;5019743;28;20030;-73
2021/08/24 03:34:10;;;;;;;1.35;1.25;;;;;;;15.43;67.44;101718.88;5009056;28;20500;-74
2021/08/24 03:36:36;;;;;;;0.80;0.80;;;;;;;15.41;67.04;101713.63;5019681;28;20600;-74
2021/08/24 03:39:02;;;;;;;3.05;1.00;;;;;;;15.50;67.08;101719.47;5015281;28;20038;-75
2021/08/24 03:41:40;;;;;;;0.85;0.85;;;;;;;15.45;67.42;101703.75;5015910;28;20516;-76
2021/08/24 03:44:11;;;;;;;1.92;1.83;;;;;;;15.54;67.05;101712.34;5010211;28;20038;-75
2021/08/24 03:47:21;;;;;;;5.57;1.60;;;;;;;15.66;67.12;101731.41;5009898;28;20029;-76
2021/08/24 03:54:04;;;;;;;1.10;1.10;;;;;;;15.77;67.13;101733.13;4962142;28;20046;-74
2021/08/24 04:15:29;;;;;;;;;;;;;;;;;;;;;
2021/08/24 04:22:08;;;;;;;0.75;0.63;;;;;;;15.99;66.21;101721.06;4774247;30;20056;-75
2021/08/24 04:24:52;;;;;;;1.63;1.50;;;;;;;15.84;66.85;101711.69;4783642;29;20050;-75
2021/08/24 04:27:19;;;;;;;0.93;0.80;;;;;;;15.80;66.81;101698.66;4827586;29;20053;-75
2021/08/24 04:29:55;;;;;;;;;;;;;;;;;;;;;
2021/08/24 04:32:31;;;;;;;0.60;0.60;;;;;;;15.80;66.35;101694.00;4877258;29;20099;-75
2021/08/24 04:35:05;;;;;;;;;;;;;;;15.97;65.98;101712.25;4940211;29;20074;-74
2021/08/24 04:41:11;;;;;;;1.05;0.73;;;;;;;15.73;66.13;101698.91;4937347;29;20054;-76
2021/08/24 04:44:21;;;;;;;0.60;0.60;;;;;;;15.80;66.20;101721.59;4939409;29;20055;-75
2021/08/24 04:46:47;;;;;;;0.40;0.40;;;;;;;15.60;65.72;101699.41;5003579;28;20041;-75
2021/08/24 04:49:13;;;;;;;0.50;0.50;;;;;;;15.63;65.78;101715.41;5007018;28;20056;-74
2021/08/24 04:51:41;;;;;;;0.60;0.60;;;;;;;15.56;66.04;101714.81;4985093;28;20133;-75
2021/08/24 04:54:06;;;;;;;0.63;0.63;;;;;;;15.48;65.95;101719.75;5016831;28;20026;-75
2021/08/24 04:56:35;;;;;;;0.47;0.40;;;;;;;15.36;66.39;101716.34;5019016;28;20607;-75
2021/08/24 04:59:00;;;;;;;0.60;0.60;;;;;;;15.33;65.89;101727.91;5001212;28;20041;-75
2021/08/24 05:01:26;;;;;;;0.50;0.50;;;;;;;15.25;66.31;101720.97;5019488;28;20037;-73
2021/08/24 05:03:51;;;;;;;4.80;0.75;;;;;;;15.12;66.37;101716.75;5013601;28;20584;-74
2021/08/24 05:06:19;;;;;;;0.70;0.65;;;;;;;15.10;66.61;101724.47;5000955;28;20417;-73
2021/08/24 05:08:44;;;;;;;0.60;0.60;;;;;;;15.00;66.44;101725.22;4996550;28;20523;-74
2021/08/24 05:11:10;;;;;;;1.10;0.93;;;;;;;14.92;66.93;101725.72;4982158;28;20045;-73
2021/08/24 05:13:35;;;;;;;0.70;0.70;;;;;;;14.87;67.17;101722.09;5015189;28;20030;-74
2021/08/24 05:16:09;;;;;;;0.55;0.55;;;;;;;14.79;66.86;101716.00;4998915;28;20050;-73
2021/08/24 05:18:35;;;;;;;0.80;0.80;;;;;;;14.75;67.29;101719.53;5016658;28;20025;-74
2021/08/24 05:21:10;;;;;;;0.70;0.70;;;;;;;14.75;67.04;101734.13;5001604;28;20030;-73
2021/08/24 05:23:36;;;;;;;3.20;0.65;;;;;;;14.72;67.31;101736.56;5009808;28;20026;-72
2021/08/24 05:26:10;;;;;;;0.90;0.90;;;;;;;14.68;67.17;101727.19;4995170;28;20057;-73
2021/08/24 05:28:36;;;;;;;1.35;0.73;;;;;;;14.61;68.13;101725.44;4997195;28;20029;-73
2021/08/24 05:31:02;;;;;;;1.52;1.00;;;;;;;14.56;68.26;101722.63;5029401;28;20384;-75
2021/08/24 05:33:28;;;;;;;1.98;1.02;;;;;;;14.56;68.14;101725.38;4997064;28;20472;-73
2021/08/24 05:35:53;;;;;;;0.93;0.80;;;;;;;14.53;68.25;101719.56;5013801;28;20037;-73
2021/08/24 05:38:40;;;;;;;2.95;0.70;;;;;;;14.58;67.88;101723.19;4984487;28;20053;-74
2021/08/24 05:43:44;;;;;;;0.47;0.47;;;;;;;14.59;68.19;101730.38;1262776;26;20050;-72
2021/08/24 05:46:12;;;;;;;0.45;0.45;;;;;;;14.61;68.09;101732.84;5011995;28;20044;-73
2021/08/24 05:48:38;;;;;;;0.75;0.75;;;;;;;14.64;67.94;101743.38;5013195;28;20038;-73
2021/08/24 05:51:28;;;;;;;0.50;0.50;;;;;;;14.66;67.97;101742.03;5018778;28;20026;-72
2021/08/24 05:53:57;;;;;;;1.13;0.50;;;;;;;14.61;68.23;101721.84;5019064;28;20034;-75
2021/08/24 05:56:28;;;;;;;0.60;0.60;;;;;;;14.73;68.22;101741.78;5000257;28;20037;-71
2021/08/24 05:58:54;;;;;;;1.70;0.82;;;;;;;14.71;68.39;101732.97;5017193;28;20022;-77
2021/08/24 06:01:43;;;;;;;2.03;1.15;;;;;;;14.75;68.46;101719.53;5016815;28;20022;-76
2021/08/24 06:04:12;;;;;;;2.00;0.98;;;;;;;14.80;68.64;101731.41;4996191;28;20061;-77
2021/08/24 06:06:44;;;;;;;1.95;0.70;;;;;;;14.84;68.25;101726.22;5006275;28;20121;-77
2021/08/24 06:12:36;;;;;;;0.70;0.68;;;;;;;14.99;68.33;101739.25;5021211;28;20061;-78
2021/08/24 06:15:07;;;;;;;0.70;0.65;;;;;;;14.84;68.09;101715.19;5028295;28;20076;-78
2021/08/24 06:17:33;;;;;;;1.85;0.88;;;;;;;14.88;68.50;101715.47;5008538;28;20069;-77
2021/08/24 06:20:12;;;;;;;;;;;;;;;;;;;;;
2021/08/24 06:23:26;;;;;;;0.50;0.50;;;;;;;15.11;68.04;101739.91;5023787;28;20112;-77
2021/08/24 06:29:17;;;;;;;1.88;0.93;;;;;;;15.11;68.25;101736.31;4979999;28;20034;-75
2021/08/24 06:32:06;;;;;;;0.95;0.73;;;;;;;15.09;68.17;101717.31;5015126;28;20671;-73
2021/08/24 06:34:51;;;;;;;;;;;;;;;;;;;;;
2021/08/24 06:38:16;;;;;;;;;;;;;;;;;;;;;
2021/08/24 06:45:13;;;;;;;1.98;1.73;;;;;;;15.98;67.56;101752.53;4978601;28;20211;-73
2021/08/24 06:47:42;;;;;;;1.50;1.20;;;;;;;16.09;67.32;101740.44;4927329;28;20059;-72
2021/08/24 06:50:17;;;;;;;1.25;1.15;;;;;;;16.15;66.88;101744.88;4957555;28;20567;-72
2021/08/24 06:52:42;;;;;;;1.27;1.17;;;;;;;16.28;66.94;101749.06;4967690;28;20580;-72
2021/08/24 06:55:18;;;;;;;1.05;1.00;;;;;;;16.40;66.52;101754.31;4976985;28;20134;-72
2021/08/24 06:57:48;;;;;;;1.20;1.10;;;;;;;16.46;66.51;101749.66;5012440;28;20109;-71
2021/08/24 07:04:08;;;;;;;;;;;;;;;;;;;;;
2021/08/24 07:10:53;;;;;;;;;;;;;;;;;;;;;
2021/08/24 07:13:28;;;;;;;1.95;0.73;;;;;;;17.06;65.14;101758.25;4882375;29;20024;-75
2021/08/24 07:21:15;;;;;;;0.80;0.57;;;;;;;17.32;64.68;101761.81;5151639;23;20050;-72
2021/08/24 07:23:40;;;;;;;2.03;0.85;;;;;;;17.42;64.61;101760.94;5012088;28;20123;-73
2021/08/24 07:26:05;;;;;;;2.50;0.95;;;;;;;17.53;64.14;101757.06;4994109;28;20485;-73
2021/08/24 07:28:31;;;;;;;0.63;0.63;;;;;;;17.62;64.41;101755.41;5013209;28;20040;-74
2021/08/24 07:30:56;;;;;;;0.80;0.50;;;;;;;17.74;63.59;101757.00;5029457;28;20036;-74
2021/08/24 07:33:22;;;;;;;1.38;0.90;;;;;;;17.83;63.45;101752.56;5010374;28;20038;-74
2021/08/24 07:35:56;;;;;;;1.48;0.65;;;;;;;17.93;63.24;101755.31;5001110;28;20119;-73
2021/08/24 07:38:22;;;;;;;0.90;0.90;;;;;;;18.00;63.09;101752.22;5017052;28;20042;-74
2021/08/24 07:40:48;;;;;;;2.42;0.85;;;;;;;18.04;63.32;101755.25;5010740;28;20030;-75
2021/08/24 07:43:14;;;;;;;4.15;0.90;;;;;;;18.04;63.06;101755.25;5007320;28;20034;-74
2021/08/24 07:45:39;;;;;;;0.77;0.77;;;;;;;18.08;63.07;101767.44;5007658;28;20029;-74
2021/08/24 07:48:05;;;;;;;1.13;0.93;;;;;;;18.08;62.91;101767.44;4971636;28;20267;-73
2021/08/24 07:50:31;;;;;;;3.03;0.80;;;;;;;18.14;63.09;101766.28;4999565;28;20085;-73
2021/08/24 07:52:57;;;;;;;1.88;1.00;;;;;;;18.18;62.44;101772.91;5006801;28;20026;-74
2021/08/24 07:55:22;;;;;;;1.63;0.95;;;;;;;18.29;62.19;101774.47;5010882;28;20042;-73
2021/08/24 07:57:48;;;;;;;5.07;1.05;;;;;;;18.41;62.73;101776.09;4994827;28;20041;-74
2021/08/24 08:00:13;;;;;;;0.90;0.90;;;;;;;18.46;62.09;101776.06;5014607;28;20022;-73
2021/08/24 08:02:39;;;;;;;5.80;0.80;;;;;;;18.51;62.20;101777.97;5008243;28;20030;-73
2021/08/24 08:05:05;;;;;;;0.80;0.70;;;;;;;18.53;61.24;101771.03;5006412;28;20034;-74
2021/08/24 08:07:31;;;;;;;1.08;0.82;;;;;;;18.61;61.99;101778.72;5013676;28;20049;-74
2021/08/24 08:10:00;;;;;;;1.33;1.05;;;;;;;18.61;61.32;101759.31;5009424;28;20036;-78
2021/08/24 08:12:26;;;;;;;4.63;0.70;;;;;;;18.72;60.80;101779.50;5029970;28;20112;-75
2021/08/24 08:14:51;;;;;;;0.80;0.77;;;;;;;18.85;60.71;101780.75;5019235;28;20526;-75
2021/08/24 08:17:17;;;;;;;1.33;1.23;;;;;;;18.98;60.69;101780.16;4998320;28;20037;-73
2021/08/24 08:19:42;;;;;;;1.92;0.90;;;;;;;19.17;60.57;101787.72;5022129;28;20045;-74
2021/08/24 08:22:09;;;;;;;1.60;0.70;;;;;;;19.54;59.93;101786.28;5013976;28;20065;-75
2021/08/24 08:24:35;;;;;;;1.58;1.08;;;;;;;19.86;59.22;101787.63;5016490;28;20109;-73
2021/08/24 08:27:01;;;;;;;2.42;1.00;;;;;;;20.11;57.91;101788.44;5016014;28;20049;-74
2021/08/24 08:29:26;;;;;;;0.70;0.70;;;;;;;20.31;57.48;101788.16;5020026;28;20025;-72
2021/08/24 08:31:52;;;;;;;1.83;0.95;;;;;;;20.43;56.53;101797.97;5013998;28;20503;-74
2021/08/24 08:34:19;;;;;;;3.08;0.95;;;;;;;20.48;55.90;101787.59;5013093;28;20025;-76
2021/08/24 08:36:48;;;;;;;4.28;1.10;;;;;;;20.60;55.64;101787.16;5005776;28;20105;-74
2021/08/24 08:39:26;;;;;;;;;;;;;;;;;;;;;
2021/08/24 08:42:22;;;;;;;3.17;1.00;;;;;;;20.67;54.95;101776.50;5007408;28;20022;-76
2021/08/24 08:44:53;;;;;;;;;;;;;;;20.96;54.75;101769.13;5011244;28;20025;-76
2021/08/24 08:47:40;;;;;;;0.80;0.65;;;;;;;21.29;54.04;101775.50;5013401;28;19968;-76
2021/08/24 08:50:30;;;;;;;1.58;0.70;;;;;;;21.71;53.28;101779.19;5012038;28;20029;-72
2021/08/24 08:53:22;;;;;;;1.00;0.98;;;;;;;21.82;52.35;101771.44;5014773;28;20032;-74
2021/08/24 08:56:17;;;;;;;0.85;0.85;;;;;;;22.09;52.20;101780.91;5018262;28;20085;-76
2021/08/24 08:59:04;;;;;;;1.95;1.67;;;;;;;22.27;52.04;101768.78;4953146;29;20028;-74
2021/08/24 09:02:10;;;;;;;4.63;3.28;;;;;;;22.83;52.20;101775.03;5009364;28;20022;-80
2021/08/24 09:04:42;;;;;;;4.03;3.45;;;;;;;23.27;50.39;101768.94;4975780;28;20587;-74
2021/08/24 09:07:23;;;;;;;4.65;3.15;;;;;;;23.91;50.10;101773.34;4999234;28;20040;-74
2021/08/24 09:09:49;;;;;;;2.05;1.88;;;;;;;24.37;48.27;101777.50;5010997;28;20037;-75
2021/08/24 09:12:18;;;;;;;1.77;1.67;;;;;;;24.63;46.66;101771.13;5002579;28;20053;-75
2021/08/24 09:15:07;;;;;;;2.67;1.17;;;;;;;25.05;46.03;101779.81;5006792;28;20026;-75
2021/08/24 09:17:38;;;;;;;2.05;1.13;;;;;;;25.27;44.65;101782.38;5006614;28;20053;-74
2021/08/24 09:20:35;;;;;;;3.95;0.90;;;;;;;25.90;44.66;101762.19;5008185;28;20014;-75
2021/08/24 09:28:27;;;;;;;4.28;0.75;;;;;;;27.89;41.76;101756.19;4971726;28;20047;-76
2021/08/24 09:30:53;;;;;;;1.27;0.73;;;;;;;28.68;40.95;101767.03;4976372;28;20037;-74
2021/08/24 09:33:37;;;;;;;7.32;1.52;;;;;;;29.36;39.00;101772.91;4971376;28;20030;-76
2021/08/24 09:36:05;;;;;;;0.57;0.55;;;;;;;30.06;37.05;101777.06;4973222;28;20058;-77
2021/08/24 09:39:02;;;;;;;1.58;0.60;;;;;;;30.88;35.77;101765.88;4969133;28;20031;-77
2021/08/24 09:54:42;;;;;;;0.50;0.40;;;;;;;34.15;30.16;101785.47;5015792;28;20084;-75
2021/08/24 09:57:11;;;;;;;0.85;0.63;;;;;;;34.36;30.60;101777.13;5008592;28;20048;-73
2021/08/24 09:59:56;;;;;;;1.00;0.50;;;;;;;34.73;29.10;101775.22;5006558;28;20168;-72
2021/08/24 10:02:38;;;;;;;0.40;0.40;;;;;;;35.33;29.27;101761.56;5010174;28;20076;-73
2021/08/24 10:05:06;;;;;;;0.75;0.57;;;;;;;35.84;28.17;101763.16;4988525;28;20098;-74
2021/08/24 10:07:37;;;;;;;0.73;0.57;;;;;;;36.34;27.68;101767.94;4987294;28;20014;-74
2021/08/24 10:10:39;;;;;;;4.00;0.57;;;;;;;36.94;26.45;101771.69;4996549;28;20026;-76
2021/08/24 10:13:41;;;;;;;0.82;0.47;;;;;;;37.58;26.63;101775.28;4998765;28;20088;-71
2021/08/24 10:16:41;;;;;;;0.82;0.57;;;;;;;37.87;23.91;101775.03;4992630;28;20028;-73
2021/08/24 10:22:40;;;;;;;4.15;0.85;;;;;;;37.78;22.86;101778.41;4932720;23;20062;-74
2021/08/24 10:25:19;;;;;;;0.68;0.50;;;;;;;38.04;23.46;101771.19;5012905;28;20161;-76
2021/08/24 10:28:18;;;;;;;0.50;0.47;;;;;;;38.62;22.40;101781.91;5011859;28;20029;-76
2021/08/24 10:30:59;;;;;;;;;;;;;;;39.10;20.95;101775.09;5001875;28;20177;-75
2021/08/24 10:34:19;;;;;;;3.83;0.65;;;;;;;38.75;21.82;101776.44;5009109;28;19917;-76
2021/08/24 10:37:45;;;;;;;0.95;0.60;;;;;;;39.37;21.04;101765.72;5013015;28;20045;-76
2021/08/24 10:40:52;;;;;;;3.30;0.52;;;;;;;39.87;20.37;101772.59;4972307;28;20042;-76
2021/08/24 10:56:34;;;;;;;1.65;0.40;;;;;;;40.59;19.58;101759.69;4854068;29;20093;-73
2021/08/24 10:59:27;;;;;;;0.95;0.73;;;;;;;41.32;18.09;101761.66;4879325;29;20102;-74
2021/08/24 11:02:06;;;;;;;2.03;0.40;;;;;;;41.18;18.84;101757.91;4905966;29;20020;-75
2021/08/24 11:08:21;;;;;;;0.50;0.40;;;;;;;39.50;18.54;101757.31;5217899;23;20454;-73
2021/08/24 11:11:18;;;;;;;0.95;0.63;;;;;;;38.18;19.49;101743.69;5013671;28;20033;-73
2021/08/24 11:14:05;;;;;;;0.47;0.45;;;;;;;37.92;20.35;101750.94;5004577;28;20129;-74
2021/08/24 11:17:08;;;;;;;1.90;0.70;;;;;;;38.41;20.49;101758.09;5012980;28;20026;-74
2021/08/24 11:20:17;;;;;;;0.50;0.47;;;;;;;39.64;20.26;101741.94;5008222;28;20034;-74
2021/08/24 11:23:45;;;;;;;1.58;0.50;;;;;;;41.07;19.49;101740.16;5005065;28;20026;-74
2021/08/24 11:27:35;;;;;;;0.70;0.70;;;;;;;41.90;17.59;101740.03;4963704;28;20046;-74
2021/08/24 11:30:44;;;;;;;2.15;0.65;;;;;;;42.31;17.51;101735.59;4971803;28;20065;-74
2021/08/24 11:33:42;;;;;;;0.75;0.60;;;;;;;42.63;16.27;101742.44;4976049;28;20054;-73
2021/08/24 11:38:49;;;;;;;1.35;0.68;;;;;;;43.41;16.32;101753.38;4905110;23;20045;-75
2021/08/24 11:41:26;;;;;;;0.80;0.32;;;;;;;43.82;15.69;101739.19;4974745;28;20122;-73
2021/08/24 11:44:57;;;;;;;0.55;0.40;;;;;;;44.54;14.68;101750.91;5000457;28;20140;-74
2021/08/24 11:47:48;;;;;;;0.50;0.50;;;;;;;44.72;14.38;101743.63;4993151;28;20030;-74
2021/08/24 11:51:23;;;;;;;0.43;0.40;;;;;;;44.82;14.23;101750.22;5012073;28;20045;-73
2021/08/24 11:56:44;;;;;;;0.50;0.22;;;;;;;41.14;16.32;101734.22;5010871;28;20488;-74
2021/08/24 11:59:54;;;;;;;0.28;0.20;;;;;;;41.73;17.45;101717.09;5002257;28;20068;-74
2021/08/24 12:02:50;;;;;;;0.77;0.40;;;;;;;42.25;16.45;101738.22;5012020;28;20362;-74
2021/08/24 12:13:36;;;;;;;;;;;;;;;;;;;;;
2021/08/24 12:17:07;;;;;;;0.40;0.40;;;;;;;42.16;15.59;101715.88;5005308;28;20070;-73
2021/08/24 12:19:40;;;;;;;1.25;0.40;;;;;;;43.10;15.53;101718.72;4990714;28;20109;-72
2021/08/24 12:23:00;;;;;;;0.70;0.60;;;;;;;44.44;14.43;101714.66;5007693;28;20018;-73
2021/08/24 12:25:41;;;;;;;0.50;0.40;;;;;;;44.91;14.63;101710.69;5004684;28;20053;-73
2021/08/24 12:28:37;;;;;;;5.18;0.60;;;;;;;45.60;13.49;101711.41;5010302;28;20057;-74
2021/08/24 12:31:21;;;;;;;0.47;0.35;;;;;;;45.86;13.25;101716.88;4955220;29;20039;-73
2021/08/24 12:33:50;;;;;;;0.30;0.30;;;;;;;46.29;12.87;101709.09;4940471;29;20506;-73
2021/08/24 12:36:19;;;;;;;1.02;0.45;;;;;;;46.48;11.85;101704.03;5012916;28;20034;-74
2021/08/24 12:39:26;;;;;;;0.20;0.20;;;;;;;46.88;12.51;101713.66;5021224;28;20022;-78
2021/08/24 12:42:23;;;;;;;0.63;0.60;;;;;;;47.77;12.38;101718.16;5006242;28;20476;-73
2021/08/24 12:44:57;;;;;;;0.70;0.57;;;;;;;47.94;11.53;101698.97;5018867;28;20030;-73
2021/08/24 12:47:30;;;;;;;0.95;0.52;;;;;;;47.72;11.57;101716.75;5017257;28;20079;-74
2021/08/24 12:50:15;;;;;;;0.52;0.45;;;;;;;47.00;11.43;101709.72;5014450;28;20546;-73
2021/08/24 12:52:49;;;;;;;0.45;0.40;;;;;;;45.05;11.78;101705.59;4981726;28;20092;-73
2021/08/24 12:55:36;;;;;;;0.80;0.40;;;;;;;44.66;13.14;101696.50;5021452;28;20022;-73
2021/08/24 12:58:19;;;;;;;1.52;0.52;;;;;;;44.97;13.21;101694.34;5008326;28;20037;-69
2021/08/24 13:01:08;;;;;;;0.50;0.50;;;;;;;45.43;13.18;101692.81;5007156;28;20026;-73
2021/08/24 13:03:38;;;;;;;0.40;0.40;;;;;;;45.81;12.94;101682.81;4992470;28;20042;-74
2021/08/24 13:06:18;;;;;;;2.40;0.75;;;;;;;45.80;12.43;101684.94;5015052;28;20014;-74
2021/08/24 13:08:47;;;;;;;1.13;0.60;;;;;;;45.47;12.60;101690.56;5011823;28;20033;-73
2021/08/24 13:11:26;;;;;;;0.50;0.40;;;;;;;44.92;12.86;101683.44;5026336;28;20042;-73
2021/08/24 13:13:59;;;;;;;0.60;0.40;;;;;;;45.02;12.87;101674.78;5009779;28;20128;-74
2021/08/24 13:16:32;;;;;;;0.50;0.47;;;;;;;43.78;12.80;101680.13;5025978;28;20081;-74
2021/08/24 13:18:59;;;;;;;1.20;0.43;;;;;;;41.91;13.30;101675.59;5005289;28;20488;-73
2021/08/24 13:21:27;;;;;;;0.55;0.50;;;;;;;39.94;14.51;101671.41;5015232;28;20034;-74
2021/08/24 13:23:59;;;;;;;0.82;0.52;;;;;;;38.64;15.67;101673.72;5014095;28;20044;-74
2021/08/24 13:26:34;;;;;;;0.43;0.30;;;;;;;39.44;16.60;101671.16;4991063;28;20054;-73
2021/08/24 13:29:01;;;;;;;1.15;0.60;;;;;;;40.87;15.88;101664.84;5010387;28;20029;-73
2021/08/24 13:31:42;;;;;;;0.50;0.50;;;;;;;42.34;15.06;101663.63;4984361;28;20033;-74
2021/08/24 13:34:35;;;;;;;0.70;0.55;;;;;;;42.73;13.77;101655.03;5007634;28;20025;-74
2021/08/24 13:37:01;;;;;;;3.28;0.70;;;;;;;41.97;14.55;101659.41;5015853;28;20034;-73
2021/08/24 13:39:27;;;;;;;4.18;0.82;;;;;;;41.06;14.71;101640.22;5009779;28;20037;-75
2021/08/24 13:42:01;;;;;;;3.10;0.70;;;;;;;39.30;15.58;101645.69;5013929;28;20040;-74
2021/08/24 13:44:35;;;;;;;0.70;0.70;;;;;;;38.20;16.42;101644.97;5012023;28;20056;-74
2021/08/24 13:47:07;;;;;;;0.70;0.70;;;;;;;38.43;17.21;101637.69;5016908;28;20090;-74
2021/08/24 13:49:34;;;;;;;1.50;1.35;;;;;;;38.64;16.73;101639.44;5002509;28;20045;-74
2021/08/24 13:52:02;;;;;;;0.75;0.75;;;;;;;37.72;16.55;101637.41;5005144;28;20022;-73
2021/08/24 13:54:34;;;;;;;1.02;0.88;;;;;;;36.67;17.33;101632.66;5027430;28;20048;-72
2021/08/24 13:57:02;;;;;;;1.77;0.63;;;;;;;37.26;18.23;101639.50;5008398;28;20026;-73
2021/08/24 13:59:52;;;;;;;0.70;0.63;;;;;;;38.10;17.43;101627.94;5013164;28;20080;-74
2021/08/24 14:02:22;;;;;;;1.13;0.60;;;;;;;39.08;17.01;101623.16;5008971;28;20022;-74
2021/08/24 14:04:50;;;;;;;0.52;0.40;;;;;;;40.30;16.60;101613.38;4999697;28;20053;-72
2021/08/24 14:07:26;;;;;;;1.02;0.40;;;;;;;40.94;15.91;101618.81;5007990;28;20018;-76
2021/08/24 14:10:01;;;;;;;1.15;0.68;;;;;;;40.91;15.56;101616.84;5014966;28;21924;-74
2021/08/24 14:12:35;;;;;;;;;;;;;;;41.38;15.41;101613.53;5024628;28;20058;-77
2021/08/24 14:15:12;;;;;;;2.42;0.68;;;;;;;41.99;15.19;101616.69;5025891;28;19924;-76
2021/08/24 14:18:16;;;;;;;0.75;0.57;;;;;;;43.56;14.79;101615.53;5027148;28;20031;-76
2021/08/24 14:20:46;;;;;;;0.40;0.30;;;;;;;44.45;13.59;101606.69;5008241;28;20038;-76
2021/08/24 14:23:18;;;;;;;1.08;0.98;;;;;;;44.81;12.47;101608.09;5021084;28;20048;-75
2021/08/24 14:25:49;;;;;;;0.40;0.40;;;;;;;43.36;12.43;101609.28;5012964;28;20395;-77
2021/08/24 14:28:30;;;;;;;3.85;0.73;;;;;;;41.13;13.67;101600.66;5021648;28;20023;-76
2021/08/24 14:31:01;;;;;;;0.57;0.57;;;;;;;39.44;15.55;101596.78;5018291;28;20065;-73
2021/08/24 14:33:40;;;;;;;0.75;0.50;;;;;;;40.24;15.94;101592.25;5021497;28;20030;-76
2021/08/24 14:36:18;;;;;;;0.65;0.57;;;;;;;41.49;15.37;101599.69;5009043;28;20036;-75